sensor_id;sensor_type;location;lat;lon;timestamp;temperature;humidity
13713;DHT22;6928;50.546;7.120;2023-11-19T00:00:17;11.70;89.30
13713;DHT22;6928;50.546;7.120;2023-11-19T00:02:44;11.73;89.25
13713;DHT22;6928;50.546;7.120;2023-11-19T00:05:13;11.84;89.04
13713;DHT22;6928;50.546;7.120;2023-11-19T00:07:45;11.93;88.69
13713;DHT22;6928;50.546;7.120;2023-11-19T00:10:15;11.83;89.10
13713;DHT22;6928;50.546;7.120;2023-11-19T00:12:45;11.83;89.01
13713;DHT22;6928;50.546;7.120;2023-11-19T00:15:13;11.76;89.43
13713;DHT22;6928;50.546;7.120;2023-11-19T00:17:39;11.81;89.22
13713;DHT22;6928;50.546;7.120;2023-11-19T00:20:11;11.76;89.42
13713;DHT22;6928;50.546;7.120;2023-11-19T00:22:38;11.77;89.49
13713;DHT22;6928;50.546;7.120;2023-11-19T00:25:07;11.81;89.37
13713;DHT22;6928;50.546;7.120;2023-11-19T00:27:35;11.81;89.31
13713;DHT22;6928;50.546;7.120;2023-11-19T00:30:04;11.73;89.71
13713;DHT22;6928;50.546;7.120;2023-11-19T00:32:32;11.65;90.14
13713;DHT22;6928;50.546;7.120;2023-11-19T00:34:59;11.62;90.27
13713;DHT22;6928;50.546;7.120;2023-11-19T00:37:26;11.50;90.69
13713;DHT22;6928;50.546;7.120;2023-11-19T00:39:53;11.97;89.49
13713;DHT22;6928;50.546;7.120;2023-11-19T00:42:21;11.94;89.41
13713;DHT22;6928;50.546;7.120;2023-11-19T00:44:51;11.95;89.35
13713;DHT22;6928;50.546;7.120;2023-11-19T00:47:18;12.02;89.43
13713;DHT22;6928;50.546;7.120;2023-11-19T00:49:46;12.13;88.98
13713;DHT22;6928;50.546;7.120;2023-11-19T00:52:15;12.09;89.09
13713;DHT22;6928;50.546;7.120;2023-11-19T00:54:42;12.05;89.34
13713;DHT22;6928;50.546;7.120;2023-11-19T00:57:09;12.09;89.49
13713;DHT22;6928;50.546;7.120;2023-11-19T00:59:36;12.14;89.36
13713;DHT22;6928;50.546;7.120;2023-11-19T01:02:04;12.15;89.50
13713;DHT22;6928;50.546;7.120;2023-11-19T01:04:33;12.08;89.59
13713;DHT22;6928;50.546;7.120;2023-11-19T01:07:02;12.18;89.38
13713;DHT22;6928;50.546;7.120;2023-11-19T01:09:30;12.14;89.50
13713;DHT22;6928;50.546;7.120;2023-11-19T01:12:00;12.21;89.44
13713;DHT22;6928;50.546;7.120;2023-11-19T01:14:27;12.17;89.63
13713;DHT22;6928;50.546;7.120;2023-11-19T01:16:53;12.25;89.33
13713;DHT22;6928;50.546;7.120;2023-11-19T01:19:22;12.22;89.62
13713;DHT22;6928;50.546;7.120;2023-11-19T01:21:50;12.28;89.61
13713;DHT22;6928;50.546;7.120;2023-11-19T01:24:17;12.32;89.72
13713;DHT22;6928;50.546;7.120;2023-11-19T01:26:44;12.25;90.02
13713;DHT22;6928;50.546;7.120;2023-11-19T01:29:11;12.25;90.10
13713;DHT22;6928;50.546;7.120;2023-11-19T01:31:39;12.25;90.07
13713;DHT22;6928;50.546;7.120;2023-11-19T01:34:06;12.24;90.17
13713;DHT22;6928;50.546;7.120;2023-11-19T01:36:34;12.32;90.10
13713;DHT22;6928;50.546;7.120;2023-11-19T01:39:01;12.27;90.26
13713;DHT22;6928;50.546;7.120;2023-11-19T01:41:29;12.21;90.46
13713;DHT22;6928;50.546;7.120;2023-11-19T01:44:00;12.24;90.61
13713;DHT22;6928;50.546;7.120;2023-11-19T01:46:27;12.39;89.88
13713;DHT22;6928;50.546;7.120;2023-11-19T01:48:54;12.39;89.91
13713;DHT22;6928;50.546;7.120;2023-11-19T01:51:21;12.28;90.35
13713;DHT22;6928;50.546;7.120;2023-11-19T01:53:50;12.25;90.42
13713;DHT22;6928;50.546;7.120;2023-11-19T01:56:17;12.25;90.33
13713;DHT22;6928;50.546;7.120;2023-11-19T01:58:45;12.25;90.34
13713;DHT22;6928;50.546;7.120;2023-11-19T02:01:13;12.38;89.88
13713;DHT22;6928;50.546;7.120;2023-11-19T02:03:40;12.31;90.17
13713;DHT22;6928;50.546;7.120;2023-11-19T02:06:08;12.24;90.49
13713;DHT22;6928;50.546;7.120;2023-11-19T02:08:36;12.42;89.90
13713;DHT22;6928;50.546;7.120;2023-11-19T02:11:05;12.35;90.07
13713;DHT22;6928;50.546;7.120;2023-11-19T02:13:33;12.36;90.05
13713;DHT22;6928;50.546;7.120;2023-11-19T02:16:01;12.39;89.99
13713;DHT22;6928;50.546;7.120;2023-11-19T02:18:29;12.41;89.97
13713;DHT22;6928;50.546;7.120;2023-11-19T02:20:56;12.46;89.69
13713;DHT22;6928;50.546;7.120;2023-11-19T02:23:25;12.42;90.11
13713;DHT22;6928;50.546;7.120;2023-11-19T02:26:12;12.38;90.05
13713;DHT22;6928;50.546;7.120;2023-11-19T02:28:42;12.46;89.88
13713;DHT22;6928;50.546;7.120;2023-11-19T02:31:09;12.42;89.94
13713;DHT22;6928;50.546;7.120;2023-11-19T02:33:37;12.44;89.92
13713;DHT22;6928;50.546;7.120;2023-11-19T02:36:05;12.42;90.00
13713;DHT22;6928;50.546;7.120;2023-11-19T02:38:32;12.36;90.30
13713;DHT22;6928;50.546;7.120;2023-11-19T02:41:03;12.34;90.37
13713;DHT22;6928;50.546;7.120;2023-11-19T02:43:31;12.39;90.25
13713;DHT22;6928;50.546;7.120;2023-11-19T02:46:01;12.45;89.90
13713;DHT22;6928;50.546;7.120;2023-11-19T02:48:28;12.48;89.98
13713;DHT22;6928;50.546;7.120;2023-11-19T02:50:56;12.48;89.89
13713;DHT22;6928;50.546;7.120;2023-11-19T02:53:24;12.52;89.66
13713;DHT22;6928;50.546;7.120;2023-11-19T02:55:53;12.44;90.08
13713;DHT22;6928;50.546;7.120;2023-11-19T02:58:26;12.39;90.12
13713;DHT22;6928;50.546;7.120;2023-11-19T03:00:54;12.36;90.22
13713;DHT22;6928;50.546;7.120;2023-11-19T03:03:27;12.38;90.06
13713;DHT22;6928;50.546;7.120;2023-11-19T03:06:04;12.21;90.51
13713;DHT22;6928;50.546;7.120;2023-11-19T03:08:31;12.07;90.84
13713;DHT22;6928;50.546;7.120;2023-11-19T03:10:59;12.04;91.06
13713;DHT22;6928;50.546;7.120;2023-11-19T03:13:25;11.99;90.99
13713;DHT22;6928;50.546;7.120;2023-11-19T03:15:52;12.04;90.98
13713;DHT22;6928;50.546;7.120;2023-11-19T03:18:20;11.97;91.10
13713;DHT22;6928;50.546;7.120;2023-11-19T03:20:48;12.04;90.88
13713;DHT22;6928;50.546;7.120;2023-11-19T03:23:16;12.08;90.74
13713;DHT22;6928;50.546;7.120;2023-11-19T03:25:42;12.04;90.83
13713;DHT22;6928;50.546;7.120;2023-11-19T03:28:09;12.13;90.63
13713;DHT22;6928;50.546;7.120;2023-11-19T03:30:36;12.17;90.49
13713;DHT22;6928;50.546;7.120;2023-11-19T03:33:03;12.22;90.43
13713;DHT22;6928;50.546;7.120;2023-11-19T03:35:30;12.29;90.15
13713;DHT22;6928;50.546;7.120;2023-11-19T03:38:00;12.34;90.13
13713;DHT22;6928;50.546;7.120;2023-11-19T03:40:27;12.41;90.11
13713;DHT22;6928;50.546;7.120;2023-11-19T03:42:56;12.36;90.13
13713;DHT22;6928;50.546;7.120;2023-11-19T03:45:22;12.32;90.30
13713;DHT22;6928;50.546;7.120;2023-11-19T03:47:50;12.62;89.39
13713;DHT22;6928;50.546;7.120;2023-11-19T03:50:17;12.73;89.11
13713;DHT22;6928;50.546;7.120;2023-11-19T03:52:45;12.56;89.45
13713;DHT22;6928;50.546;7.120;2023-11-19T03:55:14;12.66;89.49
13713;DHT22;6928;50.546;7.120;2023-11-19T03:57:41;12.65;89.43
13713;DHT22;6928;50.546;7.120;2023-11-19T04:00:09;12.56;89.67
13713;DHT22;6928;50.546;7.120;2023-11-19T04:02:36;12.63;89.63
13713;DHT22;6928;50.546;7.120;2023-11-19T04:05:04;12.55;89.77
13713;DHT22;6928;50.546;7.120;2023-11-19T04:07:32;12.67;89.63
13713;DHT22;6928;50.546;7.120;2023-11-19T04:09:59;12.55;89.77
13713;DHT22;6928;50.546;7.120;2023-11-19T04:12:27;12.35;90.12
13713;DHT22;6928;50.546;7.120;2023-11-19T04:14:54;12.44;90.17
13713;DHT22;6928;50.546;7.120;2023-11-19T04:17:21;12.45;90.06
13713;DHT22;6928;50.546;7.120;2023-11-19T04:19:48;12.55;89.68
13713;DHT22;6928;50.546;7.120;2023-11-19T04:22:15;12.28;90.17
13713;DHT22;6928;50.546;7.120;2023-11-19T04:24:42;12.20;90.43
13713;DHT22;6928;50.546;7.120;2023-11-19T04:27:09;12.31;90.37
13713;DHT22;6928;50.546;7.120;2023-11-19T04:29:38;12.32;90.20
13713;DHT22;6928;50.546;7.120;2023-11-19T04:32:05;12.27;90.43
13713;DHT22;6928;50.546;7.120;2023-11-19T04:34:33;12.21;90.46
13713;DHT22;6928;50.546;7.120;2023-11-19T04:37:00;12.15;90.49
13713;DHT22;6928;50.546;7.120;2023-11-19T04:39:29;12.45;89.55
13713;DHT22;6928;50.546;7.120;2023-11-19T04:41:56;12.69;88.48
13713;DHT22;6928;50.546;7.120;2023-11-19T04:44:22;12.65;88.37
13713;DHT22;6928;50.546;7.120;2023-11-19T04:46:50;12.60;88.48
13713;DHT22;6928;50.546;7.120;2023-11-19T04:49:17;12.69;88.05
13713;DHT22;6928;50.546;7.120;2023-11-19T04:51:46;12.57;88.27
13713;DHT22;6928;50.546;7.120;2023-11-19T04:54:13;12.60;88.16
13713;DHT22;6928;50.546;7.120;2023-11-19T04:56:40;12.76;87.43
13713;DHT22;6928;50.546;7.120;2023-11-19T04:59:11;12.87;86.64
13713;DHT22;6928;50.546;7.120;2023-11-19T05:01:38;12.81;86.89
13713;DHT22;6928;50.546;7.120;2023-11-19T05:04:07;12.63;87.51
13713;DHT22;6928;50.546;7.120;2023-11-19T05:06:34;12.55;87.79
13713;DHT22;6928;50.546;7.120;2023-11-19T05:09:01;12.75;86.40
13713;DHT22;6928;50.546;7.120;2023-11-19T05:11:30;12.69;86.70
13713;DHT22;6928;50.546;7.120;2023-11-19T05:13:58;12.73;86.39
13713;DHT22;6928;50.546;7.120;2023-11-19T05:16:25;12.67;86.68
13713;DHT22;6928;50.546;7.120;2023-11-19T05:18:52;12.66;86.47
13713;DHT22;6928;50.546;7.120;2023-11-19T05:21:20;12.73;86.08
13713;DHT22;6928;50.546;7.120;2023-11-19T05:23:47;12.72;86.05
13713;DHT22;6928;50.546;7.120;2023-11-19T05:26:18;12.69;86.25
13713;DHT22;6928;50.546;7.120;2023-11-19T05:28:46;12.60;86.49
13713;DHT22;6928;50.546;7.120;2023-11-19T05:31:13;12.66;86.21
13713;DHT22;6928;50.546;7.120;2023-11-19T05:33:40;12.65;86.45
13713;DHT22;6928;50.546;7.120;2023-11-19T05:36:06;12.66;86.28
13713;DHT22;6928;50.546;7.120;2023-11-19T05:38:35;12.70;85.82
13713;DHT22;6928;50.546;7.120;2023-11-19T05:41:02;12.63;86.17
13713;DHT22;6928;50.546;7.120;2023-11-19T05:43:30;12.59;86.24
13713;DHT22;6928;50.546;7.120;2023-11-19T05:45:57;12.69;85.59
13713;DHT22;6928;50.546;7.120;2023-11-19T05:48:26;12.59;86.13
13713;DHT22;6928;50.546;7.120;2023-11-19T05:50:53;12.48;86.70
13713;DHT22;6928;50.546;7.120;2023-11-19T05:53:20;12.48;86.38
13713;DHT22;6928;50.546;7.120;2023-11-19T05:55:49;12.48;86.44
13713;DHT22;6928;50.546;7.120;2023-11-19T05:58:24;12.38;86.81
13713;DHT22;6928;50.546;7.120;2023-11-19T06:00:54;12.34;87.12
13713;DHT22;6928;50.546;7.120;2023-11-19T06:03:20;12.28;87.13
13713;DHT22;6928;50.546;7.120;2023-11-19T06:05:47;12.41;86.63
13713;DHT22;6928;50.546;7.120;2023-11-19T06:08:14;12.35;86.52
13713;DHT22;6928;50.546;7.120;2023-11-19T06:10:42;12.22;87.20
13713;DHT22;6928;50.546;7.120;2023-11-19T06:13:10;12.08;87.55
13713;DHT22;6928;50.546;7.120;2023-11-19T06:15:37;11.88;88.26
13713;DHT22;6928;50.546;7.120;2023-11-19T06:18:04;12.08;87.50
13713;DHT22;6928;50.546;7.120;2023-11-19T06:20:31;11.94;87.89
13713;DHT22;6928;50.546;7.120;2023-11-19T06:22:57;11.97;87.83
13713;DHT22;6928;50.546;7.120;2023-11-19T06:25:24;11.95;87.76
13713;DHT22;6928;50.546;7.120;2023-11-19T06:27:52;11.80;88.05
13713;DHT22;6928;50.546;7.120;2023-11-19T06:30:20;12.01;87.48
13713;DHT22;6928;50.546;7.120;2023-11-19T06:32:47;12.18;86.64
13713;DHT22;6928;50.546;7.120;2023-11-19T06:35:14;12.24;86.26
13713;DHT22;6928;50.546;7.120;2023-11-19T06:37:41;12.22;86.05
13713;DHT22;6928;50.546;7.120;2023-11-19T06:40:09;12.28;85.56
13713;DHT22;6928;50.546;7.120;2023-11-19T06:42:37;12.21;85.67
13713;DHT22;6928;50.546;7.120;2023-11-19T06:45:06;12.21;85.15
13713;DHT22;6928;50.546;7.120;2023-11-19T06:47:34;12.15;85.36
13713;DHT22;6928;50.546;7.120;2023-11-19T06:50:01;12.25;84.54
13713;DHT22;6928;50.546;7.120;2023-11-19T06:52:31;12.39;83.29
13713;DHT22;6928;50.546;7.120;2023-11-19T06:54:57;12.34;83.86
13713;DHT22;6928;50.546;7.120;2023-11-19T06:57:26;12.25;84.18
13713;DHT22;6928;50.546;7.120;2023-11-19T06:59:53;12.18;84.27
13713;DHT22;6928;50.546;7.120;2023-11-19T07:02:20;12.22;84.09
13713;DHT22;6928;50.546;7.120;2023-11-19T07:04:48;12.25;83.77
13713;DHT22;6928;50.546;7.120;2023-11-19T07:07:15;12.36;83.19
13713;DHT22;6928;50.546;7.120;2023-11-19T07:09:42;12.35;83.05
13713;DHT22;6928;50.546;7.120;2023-11-19T07:12:09;12.34;83.26
13713;DHT22;6928;50.546;7.120;2023-11-19T07:14:36;12.45;82.48
13713;DHT22;6928;50.546;7.120;2023-11-19T07:17:03;12.44;82.70
13713;DHT22;6928;50.546;7.120;2023-11-19T07:19:29;12.36;83.28
13713;DHT22;6928;50.546;7.120;2023-11-19T07:21:58;12.38;83.53
13713;DHT22;6928;50.546;7.120;2023-11-19T07:24:24;12.41;83.01
13713;DHT22;6928;50.546;7.120;2023-11-19T07:26:54;12.48;83.04
13713;DHT22;6928;50.546;7.120;2023-11-19T07:29:21;12.60;82.20
13713;DHT22;6928;50.546;7.120;2023-11-19T07:31:48;12.67;82.16
13713;DHT22;6928;50.546;7.120;2023-11-19T07:34:15;12.81;81.44
13713;DHT22;6928;50.546;7.120;2023-11-19T07:36:42;12.99;80.36
13713;DHT22;6928;50.546;7.120;2023-11-19T07:39:10;12.96;80.56
13713;DHT22;6928;50.546;7.120;2023-11-19T07:41:37;12.86;81.45
13713;DHT22;6928;50.546;7.120;2023-11-19T07:44:04;12.72;81.62
13713;DHT22;6928;50.546;7.120;2023-11-19T07:46:32;12.70;81.30
13713;DHT22;6928;50.546;7.120;2023-11-19T07:48:58;12.80;80.27
13713;DHT22;6928;50.546;7.120;2023-11-19T07:51:25;12.84;79.36
13713;DHT22;6928;50.546;7.120;2023-11-19T07:53:52;12.72;80.27
13713;DHT22;6928;50.546;7.120;2023-11-19T07:56:20;12.72;79.61
13713;DHT22;6928;50.546;7.120;2023-11-19T07:58:49;12.84;78.45
13713;DHT22;6928;50.546;7.120;2023-11-19T08:01:17;12.77;79.02
13713;DHT22;6928;50.546;7.120;2023-11-19T08:03:44;12.70;79.55
13713;DHT22;6928;50.546;7.120;2023-11-19T08:06:11;12.73;79.23
13713;DHT22;6928;50.546;7.120;2023-11-19T08:08:38;12.72;79.32
13713;DHT22;6928;50.546;7.120;2023-11-19T08:11:05;12.69;79.09
13713;DHT22;6928;50.546;7.120;2023-11-19T08:13:34;12.67;79.47
13713;DHT22;6928;50.546;7.120;2023-11-19T08:16:01;12.70;79.06
13713;DHT22;6928;50.546;7.120;2023-11-19T08:18:28;12.67;78.66
13713;DHT22;6928;50.546;7.120;2023-11-19T08:20:54;12.69;79.05
13713;DHT22;6928;50.546;7.120;2023-11-19T08:23:23;12.83;77.60
13713;DHT22;6928;50.546;7.120;2023-11-19T08:25:51;12.83;77.42
13713;DHT22;6928;50.546;7.120;2023-11-19T08:28:18;12.79;77.80
13713;DHT22;6928;50.546;7.120;2023-11-19T08:30:46;12.77;77.96
13713;DHT22;6928;50.546;7.120;2023-11-19T08:33:13;12.76;78.27
13713;DHT22;6928;50.546;7.120;2023-11-19T08:35:40;12.87;76.81
13713;DHT22;6928;50.546;7.120;2023-11-19T08:38:07;12.88;76.89
13713;DHT22;6928;50.546;7.120;2023-11-19T08:40:34;12.79;77.66
13713;DHT22;6928;50.546;7.120;2023-11-19T08:43:01;12.83;76.75
13713;DHT22;6928;50.546;7.120;2023-11-19T08:45:27;12.97;76.41
13713;DHT22;6928;50.546;7.120;2023-11-19T08:47:56;12.96;76.87
13713;DHT22;6928;50.546;7.120;2023-11-19T08:50:23;13.02;75.69
13713;DHT22;6928;50.546;7.120;2023-11-19T08:52:50;13.04;76.77
13713;DHT22;6928;50.546;7.120;2023-11-19T08:55:17;13.10;75.79
13713;DHT22;6928;50.546;7.120;2023-11-19T08:57:44;13.07;76.12
13713;DHT22;6928;50.546;7.120;2023-11-19T09:00:11;13.28;75.05
13713;DHT22;6928;50.546;7.120;2023-11-19T09:02:40;13.28;75.00
13713;DHT22;6928;50.546;7.120;2023-11-19T09:05:12;13.49;73.87
13713;DHT22;6928;50.546;7.120;2023-11-19T09:07:39;13.48;74.19
13713;DHT22;6928;50.546;7.120;2023-11-19T09:10:07;13.54;74.30
13713;DHT22;6928;50.546;7.120;2023-11-19T09:12:34;13.72;73.81
13713;DHT22;6928;50.546;7.120;2023-11-19T09:15:01;13.63;73.62
13713;DHT22;6928;50.546;7.120;2023-11-19T09:17:28;13.62;74.03
13713;DHT22;6928;50.546;7.120;2023-11-19T09:19:55;13.73;74.26
13713;DHT22;6928;50.546;7.120;2023-11-19T09:22:23;13.82;73.61
13713;DHT22;6928;50.546;7.120;2023-11-19T09:24:50;13.92;72.93
13713;DHT22;6928;50.546;7.120;2023-11-19T09:27:17;13.92;73.26
13713;DHT22;6928;50.546;7.120;2023-11-19T09:29:43;13.99;73.19
13713;DHT22;6928;50.546;7.120;2023-11-19T09:32:12;13.93;73.06
13713;DHT22;6928;50.546;7.120;2023-11-19T09:34:38;14.03;72.57
13713;DHT22;6928;50.546;7.120;2023-11-19T09:37:04;14.00;72.47
13713;DHT22;6928;50.546;7.120;2023-11-19T09:39:32;14.03;72.80
13713;DHT22;6928;50.546;7.120;2023-11-19T09:41:59;14.03;73.13
13713;DHT22;6928;50.546;7.120;2023-11-19T09:44:26;14.17;71.93
13713;DHT22;6928;50.546;7.120;2023-11-19T09:46:53;14.25;70.97
13713;DHT22;6928;50.546;7.120;2023-11-19T09:49:21;14.21;71.27
13713;DHT22;6928;50.546;7.120;2023-11-19T09:51:52;14.28;71.75
13713;DHT22;6928;50.546;7.120;2023-11-19T09:54:18;14.25;71.06
13713;DHT22;6928;50.546;7.120;2023-11-19T09:56:47;14.35;71.22
13713;DHT22;6928;50.546;7.120;2023-11-19T09:59:15;14.51;71.17
13713;DHT22;6928;50.546;7.120;2023-11-19T10:01:43;14.51;71.37
13713;DHT22;6928;50.546;7.120;2023-11-19T10:04:14;14.64;70.83
13713;DHT22;6928;50.546;7.120;2023-11-19T10:06:42;14.54;69.75
13713;DHT22;6928;50.546;7.120;2023-11-19T10:09:11;14.28;70.45
13713;DHT22;6928;50.546;7.120;2023-11-19T10:11:40;14.42;70.15
13713;DHT22;6928;50.546;7.120;2023-11-19T10:14:09;14.53;69.69
13713;DHT22;6928;50.546;7.120;2023-11-19T10:16:35;14.65;69.86
13713;DHT22;6928;50.546;7.120;2023-11-19T10:19:03;14.67;70.01
13713;DHT22;6928;50.546;7.120;2023-11-19T10:21:32;14.61;70.54
13713;DHT22;6928;50.546;7.120;2023-11-19T10:23:59;14.53;70.99
13713;DHT22;6928;50.546;7.120;2023-11-19T10:26:27;14.60;70.81
13713;DHT22;6928;50.546;7.120;2023-11-19T10:28:56;14.55;70.24
13713;DHT22;6928;50.546;7.120;2023-11-19T10:31:24;14.54;70.26
13713;DHT22;6928;50.546;7.120;2023-11-19T10:33:52;14.65;69.95
13713;DHT22;6928;50.546;7.120;2023-11-19T10:36:19;14.78;70.04
13713;DHT22;6928;50.546;7.120;2023-11-19T10:38:54;14.86;69.56
13713;DHT22;6928;50.546;7.120;2023-11-19T10:41:27;14.88;68.98
13713;DHT22;6928;50.546;7.120;2023-11-19T10:43:54;14.98;69.24
13713;DHT22;6928;50.546;7.120;2023-11-19T10:46:21;14.88;67.81
13713;DHT22;6928;50.546;7.120;2023-11-19T10:48:50;15.14;67.62
13713;DHT22;6928;50.546;7.120;2023-11-19T10:51:19;15.13;68.04
13713;DHT22;6928;50.546;7.120;2023-11-19T10:53:49;15.09;68.15
13713;DHT22;6928;50.546;7.120;2023-11-19T10:56:17;15.30;67.93
13713;DHT22;6928;50.546;7.120;2023-11-19T10:58:48;15.36;68.61
13713;DHT22;6928;50.546;7.120;2023-11-19T11:01:20;15.34;67.51
13713;DHT22;6928;50.546;7.120;2023-11-19T11:03:47;15.44;67.60
13713;DHT22;6928;50.546;7.120;2023-11-19T11:06:18;15.44;66.21
13713;DHT22;6928;50.546;7.120;2023-11-19T11:08:46;15.47;66.71
13713;DHT22;6928;50.546;7.120;2023-11-19T11:11:16;15.60;66.16
13713;DHT22;6928;50.546;7.120;2023-11-19T11:13:47;15.64;66.70
13713;DHT22;6928;50.546;7.120;2023-11-19T11:16:18;15.47;66.52
13713;DHT22;6928;50.546;7.120;2023-11-19T11:18:46;15.79;64.73
13713;DHT22;6928;50.546;7.120;2023-11-19T11:21:24;15.75;64.21
13713;DHT22;6928;50.546;7.120;2023-11-19T11:24:34;15.58;65.25
13713;DHT22;6928;50.546;7.120;2023-11-19T11:27:38;15.39;65.70
13713;DHT22;6928;50.546;7.120;2023-11-19T11:30:19;15.60;65.31
13713;DHT22;6928;50.546;7.120;2023-11-19T11:32:58;15.57;65.23
13713;DHT22;6928;50.546;7.120;2023-11-19T11:35:39;15.40;65.52
13713;DHT22;6928;50.546;7.120;2023-11-19T11:38:11;15.12;66.47
13713;DHT22;6928;50.546;7.120;2023-11-19T11:40:40;14.96;67.17
13713;DHT22;6928;50.546;7.120;2023-11-19T11:43:44;14.89;66.68
13713;DHT22;6928;50.546;7.120;2023-11-19T11:46:53;14.65;68.19
13713;DHT22;6928;50.546;7.120;2023-11-19T11:49:28;14.69;68.13
13713;DHT22;6928;50.546;7.120;2023-11-19T11:52:03;14.71;67.62
13713;DHT22;6928;50.546;7.120;2023-11-19T11:54:32;14.76;66.96
13713;DHT22;6928;50.546;7.120;2023-11-19T11:57:07;14.76;67.99
13713;DHT22;6928;50.546;7.120;2023-11-19T11:59:48;14.68;67.90
13713;DHT22;6928;50.546;7.120;2023-11-19T12:02:17;14.67;67.90
13713;DHT22;6928;50.546;7.120;2023-11-19T12:04:47;14.69;67.26
13713;DHT22;6928;50.546;7.120;2023-11-19T12:07:16;14.69;68.03
13713;DHT22;6928;50.546;7.120;2023-11-19T12:09:53;14.67;68.06
13713;DHT22;6928;50.546;7.120;2023-11-19T12:12:27;14.61;68.02
13713;DHT22;6928;50.546;7.120;2023-11-19T12:15:06;14.54;68.93
13713;DHT22;6928;50.546;7.120;2023-11-19T12:17:43;14.65;68.53
13713;DHT22;6928;50.546;7.120;2023-11-19T12:20:15;14.67;69.35
13713;DHT22;6928;50.546;7.120;2023-11-19T12:22:43;14.91;69.05
13713;DHT22;6928;50.546;7.120;2023-11-19T12:25:13;14.69;69.49
13713;DHT22;6928;50.546;7.120;2023-11-19T12:27:44;14.61;69.97
13713;DHT22;6928;50.546;7.120;2023-11-19T12:30:12;14.61;70.00
13713;DHT22;6928;50.546;7.120;2023-11-19T12:32:40;14.58;70.14
13713;DHT22;6928;50.546;7.120;2023-11-19T12:35:08;14.51;70.23
13713;DHT22;6928;50.546;7.120;2023-11-19T12:37:41;14.51;69.94
13713;DHT22;6928;50.546;7.120;2023-11-19T12:40:15;14.44;70.79
13713;DHT22;6928;50.546;7.120;2023-11-19T12:42:43;14.40;70.61
13713;DHT22;6928;50.546;7.120;2023-11-19T12:45:10;14.41;71.12
13713;DHT22;6928;50.546;7.120;2023-11-19T12:47:38;14.31;70.91
13713;DHT22;6928;50.546;7.120;2023-11-19T12:50:10;14.28;71.26
13713;DHT22;6928;50.546;7.120;2023-11-19T12:52:37;14.31;70.93
13713;DHT22;6928;50.546;7.120;2023-11-19T12:57:49;14.41;70.18
13713;DHT22;6928;50.546;7.120;2023-11-19T13:00:19;14.40;70.28
13713;DHT22;6928;50.546;7.120;2023-11-19T13:02:48;14.45;69.97
13713;DHT22;6928;50.546;7.120;2023-11-19T13:05:27;14.47;69.43
13713;DHT22;6928;50.546;7.120;2023-11-19T13:08:01;14.45;69.28
13713;DHT22;6928;50.546;7.120;2023-11-19T13:10:30;14.47;69.18
13713;DHT22;6928;50.546;7.120;2023-11-19T13:13:07;14.45;69.75
13713;DHT22;6928;50.546;7.120;2023-11-19T13:15:35;14.40;69.54
13713;DHT22;6928;50.546;7.120;2023-11-19T13:18:02;14.44;69.14
13713;DHT22;6928;50.546;7.120;2023-11-19T13:20:29;14.50;69.15
13713;DHT22;6928;50.546;7.120;2023-11-19T13:22:57;14.50;69.02
13713;DHT22;6928;50.546;7.120;2023-11-19T13:25:25;14.60;68.33
13713;DHT22;6928;50.546;7.120;2023-11-19T13:27:52;14.72;67.82
13713;DHT22;6928;50.546;7.120;2023-11-19T13:30:22;14.74;67.89
13713;DHT22;6928;50.546;7.120;2023-11-19T13:32:49;14.71;67.11
13713;DHT22;6928;50.546;7.120;2023-11-19T13:35:17;14.74;66.30
13713;DHT22;6928;50.546;7.120;2023-11-19T13:37:45;14.93;66.20
13713;DHT22;6928;50.546;7.120;2023-11-19T13:40:12;15.02;65.59
13713;DHT22;6928;50.546;7.120;2023-11-19T13:42:41;15.13;64.61
13713;DHT22;6928;50.546;7.120;2023-11-19T13:45:09;15.09;64.93
13713;DHT22;6928;50.546;7.120;2023-11-19T13:47:41;15.07;64.71
13713;DHT22;6928;50.546;7.120;2023-11-19T13:50:09;14.99;64.93
13713;DHT22;6928;50.546;7.120;2023-11-19T13:52:36;15.02;64.80
13713;DHT22;6928;50.546;7.120;2023-11-19T13:55:07;15.00;64.63
13713;DHT22;6928;50.546;7.120;2023-11-19T13:57:34;15.20;64.59
13713;DHT22;6928;50.546;7.120;2023-11-19T14:00:01;15.06;64.88
13713;DHT22;6928;50.546;7.120;2023-11-19T14:02:31;14.85;65.16
13713;DHT22;6928;50.546;7.120;2023-11-19T14:04:59;14.88;65.33
13713;DHT22;6928;50.546;7.120;2023-11-19T14:07:26;14.71;65.48
13713;DHT22;6928;50.546;7.120;2023-11-19T14:09:54;14.58;66.34
13713;DHT22;6928;50.546;7.120;2023-11-19T14:12:21;14.64;65.28
13713;DHT22;6928;50.546;7.120;2023-11-19T14:14:48;14.53;65.88
13713;DHT22;6928;50.546;7.120;2023-11-19T14:17:15;14.53;66.30
13713;DHT22;6928;50.546;7.120;2023-11-19T14:19:42;14.44;66.38
13713;DHT22;6928;50.546;7.120;2023-11-19T14:22:10;14.37;66.52
13713;DHT22;6928;50.546;7.120;2023-11-19T14:24:38;14.37;66.90
13713;DHT22;6928;50.546;7.120;2023-11-19T14:27:06;14.34;66.99
13713;DHT22;6928;50.546;7.120;2023-11-19T14:29:33;14.31;67.96
13713;DHT22;6928;50.546;7.120;2023-11-19T14:32:00;14.30;66.97
13713;DHT22;6928;50.546;7.120;2023-11-19T14:34:28;14.28;67.70
13713;DHT22;6928;50.546;7.120;2023-11-19T14:36:55;14.30;67.96
13713;DHT22;6928;50.546;7.120;2023-11-19T14:39:24;14.24;68.01
13713;DHT22;6928;50.546;7.120;2023-11-19T14:41:51;14.21;67.64
13713;DHT22;6928;50.546;7.120;2023-11-19T14:44:23;14.23;68.05
13713;DHT22;6928;50.546;7.120;2023-11-19T14:46:50;14.16;68.97
13713;DHT22;6928;50.546;7.120;2023-11-19T14:49:17;14.07;69.74
13713;DHT22;6928;50.546;7.120;2023-11-19T14:51:44;14.02;69.66
13713;DHT22;6928;50.546;7.120;2023-11-19T14:54:10;14.00;69.82
13713;DHT22;6928;50.546;7.120;2023-11-19T14:56:41;13.94;70.15
13713;DHT22;6928;50.546;7.120;2023-11-19T14:59:08;13.89;70.73
13713;DHT22;6928;50.546;7.120;2023-11-19T15:01:35;13.83;71.40
13713;DHT22;6928;50.546;7.120;2023-11-19T15:04:02;13.82;71.06
13713;DHT22;6928;50.546;7.120;2023-11-19T15:06:29;13.79;72.01
13713;DHT22;6928;50.546;7.120;2023-11-19T15:08:56;13.75;71.93
13713;DHT22;6928;50.546;7.120;2023-11-19T15:11:23;13.81;71.79
13713;DHT22;6928;50.546;7.120;2023-11-19T15:13:51;13.72;71.98
13713;DHT22;6928;50.546;7.120;2023-11-19T15:16:19;13.66;71.73
13713;DHT22;6928;50.546;7.120;2023-11-19T15:18:51;13.65;72.15
13713;DHT22;6928;50.546;7.120;2023-11-19T15:21:18;13.61;72.03
13713;DHT22;6928;50.546;7.120;2023-11-19T15:23:44;13.56;72.36
13713;DHT22;6928;50.546;7.120;2023-11-19T15:26:11;13.56;72.15
13713;DHT22;6928;50.546;7.120;2023-11-19T15:28:38;13.61;71.79
13713;DHT22;6928;50.546;7.120;2023-11-19T15:31:06;13.58;71.98
13713;DHT22;6928;50.546;7.120;2023-11-19T15:33:33;13.56;71.72
13713;DHT22;6928;50.546;7.120;2023-11-19T15:36:00;13.59;71.57
13713;DHT22;6928;50.546;7.120;2023-11-19T15:38:28;13.56;71.71
13713;DHT22;6928;50.546;7.120;2023-11-19T15:40:55;13.55;71.50
13713;DHT22;6928;50.546;7.120;2023-11-19T15:43:22;13.52;71.66
13713;DHT22;6928;50.546;7.120;2023-11-19T15:45:49;13.46;71.63
13713;DHT22;6928;50.546;7.120;2023-11-19T15:48:17;13.44;71.66
13713;DHT22;6928;50.546;7.120;2023-11-19T15:50:44;13.45;70.85
13713;DHT22;6928;50.546;7.120;2023-11-19T15:53:11;13.39;70.97
13713;DHT22;6928;50.546;7.120;2023-11-19T15:55:38;13.34;70.96